• Join FlightAware (Why Join?)
  • Login
  • US Flag 
08:49PM EDT


 

Airport Tracker/Info


-or-


 

Live Flight TrackerFlight Track Log ✈ ASQ6041 ✈ 12-Sep-2013 ✈ KLNK - KDEN

Flight Track Log - Related Links

Times and Time Zones

All times are in EDT time to prevent confusion due to time zone crossing. See the ASQ6041 flight status page for this flight to view local times or setup timezone preferences in your user account.

Time Position Orientation Groundspeed Altitude Reporting Facility
EDT Latitude Longitude Course Direction KTS MPH feet Rate Location/Type
02:01PM 40.9039 -96.8211 312° West 210 242 3,900  Level Minneapolis Center
02:01PM 40.8914 -96.8342 218° Southwest 252 290 4,100 1,980 Climbing Minneapolis Center
02:02PM 40.8903 -96.9183 269° West 272 313 6,000 1,980 Climbing Minneapolis Center
02:03PM 40.8036 -97.2753 257° West  Level Estimated
02:03PM 40.8739 -97.0156 257° West 271 312 8,100  Level Minneapolis Center
02:04PM 40.7914 -97.4042 246° West  Level Estimated
02:04PM 40.8544 -97.1172 256° West 281 323 10,300  Level Minneapolis Center
02:05PM 40.7791 -97.5331 261° West  Level Estimated
02:05PM 40.8347 -97.2250 256° West 297 342 11,400  Level Minneapolis Center
02:06PM 40.8081 -97.3689 256° West 328 377 12,700 1,080 Climbing Minneapolis Center
02:07PM 40.7867 -97.4889 257° West 346 398 13,700 960 Climbing Minneapolis Center
02:08PM 40.7608 -97.6189 255° West 360 414 14,700 960 Climbing Minneapolis Center
02:09PM 40.7364 -97.7508 256° West 366 421 15,700 1,020 Climbing Minneapolis Center
02:10PM 40.7053 -97.9114 256° West 374 430 16,900 960 Climbing Minneapolis Center
02:11PM 40.6794 -98.0447 256° West 375 432 17,700 840 Climbing Minneapolis Center
02:12PM 40.6533 -98.1800 256° West 378 435 18,700 960 Climbing Minneapolis Center
02:13PM 40.6272 -98.3153 256° West 379 436 19,700 960 Climbing Minneapolis Center
02:14PM 40.6069 -98.4556 259° West 393 452 20,700 960 Climbing Minneapolis Center
02:15PM 40.6189 -98.5975 276° West 393 452 21,700 960 Climbing Minneapolis Center
02:16PM 40.6319 -98.7408 277° West 392 451 22,700 960 Climbing Minneapolis Center
02:17PM 40.6442 -98.8839 276° West 392 451 23,800 1,080 Climbing Minneapolis Center
02:18PM 40.6597 -99.0556 277° West 392 451 25,000 960 Climbing Minneapolis Center
02:19PM 40.6694 -99.1678 277° West 389 448 25,800 900 Climbing Denver Center
02:20PM 40.6819 -99.3094 277° West 387 445 26,800 960 Climbing Denver Center
02:21PM 40.6936 -99.4497 276° West 385 443 27,800 1,020 Climbing Denver Center
02:22PM 40.7067 -99.6158 276° West 380 437 29,000 1,020 Climbing Denver Center
02:23PM 40.7178 -99.7528 276° West 377 434 30,000 480 Climbing Denver Center
02:24PM 40.7281 -99.8842 276° West 383 441 30,000  Level Denver Center
02:25PM 40.7414 -100.0519 276° West 408 470 30,000  Level Denver Center
02:26PM 40.7528 -100.2011 276° West 424 488 30,000  Level Denver Center
02:27PM 40.7656 -100.3767 276° West 430 495 30,000  Level Denver Center
02:28PM 40.7772 -100.5289 276° West 433 498 30,000  Level Denver Center
02:29PM 40.7778 -100.7083 270° West 446 513 30,000  Level Denver Center
02:31PM 40.7500 -100.8672 257° West 444 511 30,000  Level Denver Center
02:32PM 40.7269 -101.0164 259° West 435 501 30,000  Level Denver Center
02:33PM 40.6967 -101.1903 257° West 436 502 30,000  Level Denver Center
02:34PM 40.6714 -101.3361 257° West 430 495 30,000  Level Denver Center
02:35PM 40.6492 -101.4597 257° West 433 498 30,000  Level Denver Center
02:36PM 40.6150 -101.6550 257° West 429 494 30,000  Level Denver Center
02:37PM 40.5836 -101.8253 256° West 430 495 30,000  Level Denver Center
02:38PM 40.5578 -101.9706 257° West 427 491 30,000  Level Denver Center
02:39PM 40.5256 -102.1408 256° West 430 495 30,000  Level Denver Center
02:40PM 40.4997 -102.2869 257° West 430 495 30,000  Level Denver Center
02:41PM 40.4678 -102.4572 256° West 432 497 30,000  Level Denver Center
02:42PM 40.4403 -102.6039 256° West 433 498 30,000  Level Denver Center
02:43PM 40.4114 -102.7556 256° West 436 502 30,000  Level Denver Center
02:44PM 40.3831 -102.9111 257° West 440 506 30,000 -540 Level Denver Center
02:45PM 40.3467 -103.0950 256° West 436 502 28,900 -1,080 Descending Denver Center
02:46PM 40.3194 -103.2461 257° West 429 494 27,800 -1,260 Descending Denver Center
02:47PM 40.2897 -103.3953 255° West 425 489 26,300 -1,500 Descending Denver Center
02:48PM 40.2631 -103.5356 256° West 403 464 24,800 -1,380 Descending Denver Center
02:49PM 40.2356 -103.6747 256° West 396 456 23,300 -1,680 Descending Denver Center
02:50PM 40.2044 -103.8617 258° West 386 444 21,100 -1,980 Descending Denver Center
02:51PM 40.2003 -103.9833 267° West 339 390 19,200 -1,800 Descending Denver Center
02:52PM 40.1950 -104.1108 267° West 329 379 17,400 -1,740 Descending Denver Center
02:53PM 40.1600 -104.2108 245° Southwest 305 351 15,700 -1,500 Descending Denver Center
02:55PM 40.0925 -104.2850 220° Southwest 290 334 14,400 -780 Descending Denver Center
02:56PM 40.0264 -104.3592 221° Southwest 311 358 14,100 -300 Descending Denver Center
02:56PM 39.9833 -104.4000 216° Southwest 304 350 14,000 -60 Descending Denver TRACON
02:57PM 39.9167 -104.4833 224° Southwest 310 357 14,000 -480 Level Denver TRACON
02:58PM 39.8333 -104.5000 189° South 289 333 13,000 -1,620 Descending Denver TRACON
02:59PM 39.7500 -104.5000 180° South 268 308 10,700 -1,680 Descending Denver TRACON
03:00PM 39.6833 -104.5000 180° South 238 274 9,500 -1,260 Descending Denver TRACON
03:01PM 39.6333 -104.5333 207° Southwest 233 268 8,200 -780 Descending Denver TRACON
03:02PM 39.5833 -104.5833 218° Southwest 217 250 7,900 -180 Descending Denver TRACON
03:03PM 39.6167 -104.6333 311° West 204 235 7,900 60 Level Denver TRACON
03:04PM 39.6461 -104.6439 345° North 206 237 8,000  Climbing Denver Center
03:05PM 39.7003 -104.6428 North 198 228 8,000 -540 Level Denver Center
03:06PM 39.7525 -104.6428 360° North 173 199 7,000 -900 Descending Denver Center
03:07PM 39.7953 -104.6417 North 156 180 6,200 -780 Descending Denver Center
03:08PM 39.8422 -104.6417 360° North 157 181 5,500 -720 Descending Denver Center